createdAt,value
2023-01-29T00:02:01.575Z,7.10
2023-01-29T00:04:29.497Z,8.20
2023-01-29T00:06:57.372Z,7.28
2023-01-29T00:09:25.352Z,8.55
2023-01-29T00:11:53.259Z,7.47
2023-01-29T00:14:21.339Z,9.13
2023-01-29T00:16:50.825Z,7.00
2023-01-29T00:19:19.425Z,7.50
2023-01-29T00:21:47.410Z,6.70
2023-01-29T00:24:15.368Z,6.95
2023-01-29T00:26:43.391Z,7.15
2023-01-29T00:29:11.787Z,6.65
2023-01-29T00:31:39.869Z,6.70
2023-01-29T00:34:09.742Z,6.85
2023-01-29T00:36:38.166Z,7.13
2023-01-29T00:39:10.920Z,7.13
2023-01-29T00:41:56.959Z,6.95
2023-01-29T00:44:42.804Z,7.63
2023-01-29T00:47:30.723Z,7.07
2023-01-29T00:50:00.689Z,7.50
2023-01-29T00:52:29.386Z,11.13
2023-01-29T00:54:59.515Z,8.98
2023-01-29T00:57:29.725Z,8.40
2023-01-29T00:59:57.779Z,6.80
2023-01-29T01:02:43.728Z,7.80
2023-01-29T01:05:17.942Z,8.45
2023-01-29T01:07:47.539Z,8.15
2023-01-29T01:10:21.006Z,7.32
2023-01-29T01:12:50.728Z,6.95
2023-01-29T01:15:19.011Z,7.10
2023-01-29T01:17:48.918Z,6.85
2023-01-29T01:20:19.542Z,7.57
2023-01-29T01:22:47.542Z,7.40
2023-01-29T01:25:17.592Z,7.93
2023-01-29T01:27:45.708Z,7.78
2023-01-29T01:30:16.409Z,7.25
2023-01-29T01:32:44.800Z,6.38
2023-01-29T01:35:13.702Z,7.03
2023-01-29T01:37:43.560Z,7.93
2023-01-29T01:40:18.449Z,6.85
2023-01-29T01:42:49.560Z,6.82
2023-01-29T01:45:24.211Z,6.93
2023-01-29T01:47:57.488Z,7.00
2023-01-29T01:50:29.825Z,7.20
2023-01-29T01:53:05.721Z,7.70
2023-01-29T01:55:36.149Z,6.57
2023-01-29T01:58:10.043Z,7.30
2023-01-29T02:00:40.700Z,7.80
2023-01-29T02:03:27.840Z,6.97
2023-01-29T02:06:15.463Z,6.80
2023-01-29T02:09:11.515Z,7.95
2023-01-29T02:11:39.968Z,6.75
2023-01-29T02:14:09.783Z,7.18
2023-01-29T02:16:38.180Z,7.22
2023-01-29T02:19:10.920Z,8.77
2023-01-29T02:22:04.914Z,7.22
2023-01-29T02:25:09.652Z,7.10
2023-01-29T02:28:01.664Z,7.32
2023-01-29T02:30:37.264Z,7.97
2023-01-29T02:33:14.237Z,7.13
2023-01-29T02:35:45.851Z,7.65
2023-01-29T02:38:22.382Z,8.10
2023-01-29T02:40:54.842Z,7.57
2023-01-29T02:43:31.852Z,8.02
2023-01-29T02:46:11.480Z,7.57
2023-01-29T02:48:43.974Z,7.50
2023-01-29T02:51:19.376Z,6.95
2023-01-29T02:53:59.125Z,6.85
2023-01-29T02:56:35.592Z,7.00
2023-01-29T02:59:09.614Z,7.97
2023-01-29T03:01:45.892Z,7.20
2023-01-29T03:04:18.963Z,7.90
2023-01-29T03:06:51.955Z,7.50
2023-01-29T03:09:25.782Z,7.03
2023-01-29T03:11:58.697Z,7.60
2023-01-29T03:14:53.480Z,7.10
2023-01-29T03:17:27.183Z,7.20
2023-01-29T03:19:55.819Z,7.43
2023-01-29T03:22:26.546Z,6.00
2023-01-29T03:25:16.028Z,8.50
2023-01-29T03:28:08.275Z,10.63
2023-01-29T03:31:02.907Z,11.45
2023-01-29T03:33:52.122Z,8.40
2023-01-29T03:36:25.994Z,7.63
2023-01-29T03:38:53.970Z,7.80
2023-01-29T03:41:29.691Z,8.60
2023-01-29T03:44:06.115Z,7.05
2023-01-29T03:46:42.292Z,7.40
2023-01-29T03:49:19.639Z,6.75
2023-01-29T03:51:56.237Z,7.43
2023-01-29T03:54:29.167Z,6.75
2023-01-29T03:57:03.214Z,6.80
2023-01-29T03:59:38.773Z,6.90
2023-01-29T04:02:39.448Z,8.70
2023-01-29T04:05:17.983Z,7.78
2023-01-29T04:08:03.611Z,7.72
2023-01-29T04:10:35.850Z,8.00
2023-01-29T04:13:08.676Z,7.63
2023-01-29T04:15:41.363Z,6.97
2023-01-29T04:18:09.729Z,7.97
2023-01-29T04:20:57.085Z,8.32
2023-01-29T04:23:26.796Z,8.38
2023-01-29T04:26:11.434Z,8.32
2023-01-29T04:28:54.869Z,7.22
2023-01-29T04:31:26.069Z,8.05
2023-01-29T04:34:06.395Z,8.10
2023-01-29T04:36:42.460Z,8.82
2023-01-29T04:39:17.948Z,7.72
2023-01-29T04:41:53.354Z,8.68
2023-01-29T04:44:29.726Z,9.93
2023-01-29T04:47:07.154Z,8.20
2023-01-29T04:49:44.238Z,8.50
2023-01-29T04:52:22.862Z,7.75
2023-01-29T04:55:00.532Z,6.82
2023-01-29T04:57:35.386Z,7.70
2023-01-29T05:00:08.788Z,7.32
2023-01-29T05:02:40.021Z,7.75
2023-01-29T05:05:09.899Z,7.30
2023-01-29T05:07:40.473Z,8.10
2023-01-29T05:10:11.170Z,7.70
2023-01-29T05:12:40.584Z,8.07
2023-01-29T05:15:13.585Z,7.50
2023-01-29T05:17:41.779Z,8.10
2023-01-29T05:20:11.817Z,8.02
2023-01-29T05:22:42.762Z,6.97
2023-01-29T05:25:22.253Z,7.03
2023-01-29T05:28:06.331Z,7.03
2023-01-29T05:30:36.317Z,7.13
2023-01-29T05:33:05.248Z,7.72
2023-01-29T05:35:34.823Z,7.88
2023-01-29T05:38:04.801Z,8.68
2023-01-29T05:40:32.961Z,7.40
2023-01-29T05:43:00.847Z,6.57
2023-01-29T05:45:28.779Z,7.82
2023-01-29T05:47:57.754Z,7.03
2023-01-29T05:50:26.495Z,7.15
2023-01-29T05:52:58.095Z,8.02
2023-01-29T05:55:29.341Z,6.88
2023-01-29T05:57:57.310Z,8.68
2023-01-29T06:00:25.629Z,7.70
2023-01-29T06:02:53.698Z,6.90
2023-01-29T06:05:21.625Z,7.88
2023-01-29T06:07:49.480Z,8.65
2023-01-29T06:10:19.886Z,7.25
2023-01-29T06:12:49.445Z,7.63
2023-01-29T06:15:19.641Z,7.05
2023-01-29T06:17:47.900Z,6.82
2023-01-29T06:20:16.136Z,6.70
2023-01-29T06:22:44.168Z,7.00
2023-01-29T06:25:12.102Z,7.45
2023-01-29T06:27:40.034Z,6.88
2023-01-29T06:30:10.792Z,6.68
2023-01-29T06:32:38.747Z,7.55
2023-01-29T06:35:07.717Z,6.53
2023-01-29T06:37:35.647Z,7.80
2023-01-29T06:40:03.614Z,7.30
2023-01-29T06:42:31.542Z,7.40
2023-01-29T06:44:59.457Z,7.18
2023-01-29T06:47:28.733Z,6.90
2023-01-29T06:49:56.688Z,6.80
2023-01-29T06:52:25.554Z,6.75
2023-01-29T06:54:53.494Z,7.85
2023-01-29T06:57:21.591Z,7.45
2023-01-29T06:59:49.452Z,7.90
2023-01-29T07:02:17.589Z,7.70
2023-01-29T07:04:46.898Z,6.90
2023-01-29T07:07:14.885Z,7.90
2023-01-29T07:09:43.373Z,7.70
2023-01-29T07:12:12.009Z,6.85
2023-01-29T07:14:39.875Z,6.90
2023-01-29T07:17:07.747Z,7.65
2023-01-29T07:19:35.645Z,8.80
2023-01-29T07:22:05.789Z,8.05
2023-01-29T07:24:33.988Z,8.30
2023-01-29T07:27:02.065Z,8.07
2023-01-29T07:29:30.015Z,7.30
2023-01-29T07:31:58.007Z,7.78
2023-01-29T07:34:26.102Z,7.90
2023-01-29T07:36:54.567Z,7.45
2023-01-29T07:39:23.961Z,7.40
2023-01-29T07:41:51.886Z,7.60
2023-01-29T07:44:19.777Z,7.15
2023-01-29T07:46:47.767Z,8.10
2023-01-29T07:49:15.799Z,7.15
2023-01-29T07:51:43.707Z,8.40
2023-01-29T07:54:11.596Z,7.30
2023-01-29T07:56:50.118Z,6.90
2023-01-29T07:59:17.989Z,7.10
2023-01-29T08:01:45.917Z,7.75
2023-01-29T08:04:13.789Z,7.60
2023-01-29T08:06:55.639Z,7.28
2023-01-29T08:09:36.628Z,7.28
2023-01-29T08:29:22.902Z,7.35
2023-01-29T08:56:50.576Z,7.00
2023-01-29T09:00:14.793Z,7.30
2023-01-29T09:03:23.751Z,7.30
2023-01-29T09:05:58.559Z,8.00
2023-01-29T09:08:26.535Z,6.90
2023-01-29T09:10:54.505Z,7.80
2023-01-29T09:13:22.442Z,7.82
2023-01-29T09:15:52.039Z,8.00
2023-01-29T09:18:21.904Z,7.57
2023-01-29T09:20:49.911Z,9.43
2023-01-29T09:23:17.928Z,8.32
2023-01-29T09:25:45.967Z,6.97
2023-01-29T09:28:14.073Z,7.03
2023-01-29T09:30:42.087Z,7.47
2023-01-29T09:33:11.490Z,7.07
2023-01-29T09:35:41.566Z,8.07
2023-01-29T09:38:09.607Z,6.95
2023-01-29T09:40:44.036Z,8.13
2023-01-29T09:43:17.786Z,7.50
2023-01-29T09:45:54.375Z,7.32
2023-01-29T09:48:28.575Z,7.32
2023-01-29T09:50:58.944Z,7.57
2023-01-29T09:53:35.876Z,7.50
2023-01-29T09:56:07.054Z,7.07
2023-01-29T09:58:37.120Z,7.13
2023-01-29T10:01:16.675Z,7.43
2023-01-29T10:04:22.642Z,7.18
2023-01-29T10:07:05.015Z,8.50
2023-01-29T10:09:45.876Z,7.78
2023-01-29T10:12:25.834Z,7.65
2023-01-29T10:15:02.446Z,7.68
2023-01-29T10:17:50.585Z,7.15
2023-01-29T10:20:39.459Z,7.63
2023-01-29T10:23:19.469Z,7.90
2023-01-29T10:25:49.075Z,8.35
2023-01-29T10:28:19.539Z,7.22
2023-01-29T10:30:50.826Z,7.88
2023-01-29T10:33:22.786Z,7.55
2023-01-29T10:35:56.901Z,7.13
2023-01-29T10:38:38.593Z,7.55
2023-01-29T10:41:29.670Z,8.70
2023-01-29T10:44:09.474Z,8.38
2023-01-29T10:46:53.860Z,8.13
2023-01-29T10:49:38.127Z,7.15
2023-01-29T10:52:25.791Z,7.80
2023-01-29T10:55:05.262Z,10.07
2023-01-29T10:57:52.135Z,8.00
2023-01-29T11:00:23.753Z,8.98
2023-01-29T11:02:53.103Z,8.18
2023-01-29T11:05:27.119Z,8.23
2023-01-29T11:08:05.005Z,8.85
2023-01-29T11:10:37.965Z,8.23
2023-01-29T11:13:06.917Z,7.50
2023-01-29T11:15:35.680Z,7.85
2023-01-29T11:18:10.625Z,7.88
2023-01-29T11:20:38.575Z,8.85
2023-01-29T11:23:07.907Z,8.73
2023-01-29T11:25:35.888Z,7.22
2023-01-29T11:28:05.359Z,7.72
2023-01-29T11:30:36.489Z,7.75
2023-01-29T11:33:11.214Z,8.40
2023-01-29T11:35:39.261Z,7.60
2023-01-29T11:38:21.117Z,7.30
2023-01-29T11:40:49.266Z,8.13
2023-01-29T11:43:23.300Z,7.93
2023-01-29T11:45:54.663Z,8.20
2023-01-29T11:48:25.042Z,8.07
2023-01-29T11:50:54.584Z,8.30
2023-01-29T11:53:32.771Z,7.82
2023-01-29T11:56:01.032Z,9.02
2023-01-29T11:58:31.568Z,8.40
2023-01-29T12:01:01.087Z,7.00
2023-01-29T12:03:36.240Z,8.50
2023-01-29T12:06:07.642Z,7.97
2023-01-29T12:08:39.504Z,7.90
2023-01-29T12:11:13.346Z,8.68
2023-01-29T12:13:43.267Z,7.25
2023-01-29T12:16:20.436Z,8.30
2023-01-29T12:18:52.562Z,8.27
2023-01-29T12:21:29.243Z,8.35
2023-01-29T12:24:05.757Z,8.38
2023-01-29T12:26:39.359Z,8.00
2023-01-29T12:29:21.152Z,8.55
2023-01-29T12:31:56.926Z,7.97
2023-01-29T12:34:34.374Z,8.23
2023-01-29T12:37:12.900Z,7.80
2023-01-29T12:39:42.695Z,7.30
2023-01-29T12:42:17.491Z,7.85
2023-01-29T12:44:48.324Z,7.25
2023-01-29T12:47:21.427Z,6.70
2023-01-29T12:49:55.510Z,7.35
2023-01-29T12:52:35.028Z,8.23
2023-01-29T12:55:08.261Z,7.82
2023-01-29T12:57:42.584Z,8.55
2023-01-29T13:00:15.501Z,7.05
2023-01-29T13:02:57.670Z,8.27
2023-01-29T13:05:30.060Z,11.48
2023-01-29T13:08:04.129Z,8.80
2023-01-29T13:10:38.531Z,8.00
2023-01-29T13:13:18.158Z,7.90
2023-01-29T13:15:48.011Z,6.75
2023-01-29T13:18:47.572Z,7.75
2023-01-29T13:21:19.068Z,8.13
2023-01-29T13:23:49.681Z,7.05
2023-01-29T13:26:21.121Z,7.38
2023-01-29T13:28:50.174Z,8.15
2023-01-29T13:31:30.229Z,6.85
2023-01-29T13:34:15.318Z,6.90
2023-01-29T13:36:45.256Z,7.05
2023-01-29T13:39:23.845Z,6.90
2023-01-29T13:41:54.680Z,6.90
2023-01-29T13:44:26.539Z,7.00
2023-01-29T13:46:58.522Z,7.43
2023-01-29T13:49:32.436Z,6.70
2023-01-29T13:52:14.761Z,7.00
2023-01-29T13:54:51.221Z,7.13
2023-01-29T14:01:03.520Z,6.72
2023-01-29T14:04:05.915Z,6.70
2023-01-29T14:07:05.078Z,7.35
2023-01-29T14:10:08.266Z,6.93
2023-01-29T14:12:52.027Z,7.00
2023-01-29T14:16:03.743Z,6.72
2023-01-29T14:18:48.827Z,7.63
2023-01-29T14:21:25.293Z,7.68
2023-01-29T14:23:55.725Z,7.00
2023-01-29T14:26:35.423Z,7.07
2023-01-29T14:29:09.459Z,6.47
2023-01-29T14:31:44.358Z,6.85
2023-01-29T14:34:25.460Z,7.63
2023-01-29T14:37:05.175Z,7.20
2023-01-29T14:39:50.920Z,7.63
2023-01-29T14:42:26.862Z,7.50
2023-01-29T14:45:13.132Z,7.18
2023-01-29T14:48:03.552Z,7.10
2023-01-29T14:50:59.587Z,8.13
2023-01-29T14:53:44.781Z,7.80
2023-01-29T14:56:17.140Z,7.50
2023-01-29T14:58:48.284Z,7.78
2023-01-29T15:01:21.865Z,6.57
2023-01-29T15:03:51.837Z,6.70
2023-01-29T15:06:28.301Z,6.95
2023-01-29T15:09:05.569Z,6.65
2023-01-29T15:11:41.733Z,7.07
2023-01-29T15:14:25.223Z,7.40
2023-01-29T15:17:01.720Z,7.28
2023-01-29T15:19:35.587Z,6.15
2023-01-29T15:22:08.656Z,6.57
2023-01-29T15:24:39.251Z,6.53
2023-01-29T15:27:11.024Z,7.03
2023-01-29T15:29:40.236Z,7.32
2023-01-29T15:32:16.645Z,6.60
2023-01-29T15:34:45.246Z,6.63
2023-01-29T15:37:27.178Z,6.65
2023-01-29T15:39:57.111Z,6.85
2023-01-29T15:42:26.778Z,6.50
2023-01-29T15:44:55.555Z,6.50
2023-01-29T15:47:27.405Z,7.75
2023-01-29T15:49:57.293Z,7.25
2023-01-29T15:52:29.720Z,7.35
2023-01-29T15:55:04.908Z,6.13
2023-01-29T15:57:40.371Z,7.40
2023-01-29T16:00:21.450Z,7.10
2023-01-29T16:02:49.422Z,7.38
2023-01-29T16:05:20.490Z,7.15
2023-01-29T16:07:49.512Z,7.22
2023-01-29T16:10:21.662Z,8.13
2023-01-29T16:12:52.374Z,7.28
2023-01-29T16:15:32.889Z,7.00
2023-01-29T16:18:20.300Z,7.60
2023-01-29T16:20:52.676Z,8.05
2023-01-29T16:23:24.619Z,8.10
2023-01-29T16:25:54.734Z,7.45
2023-01-29T16:28:22.822Z,8.25
2023-01-29T16:30:57.765Z,8.30
2023-01-29T16:33:32.751Z,8.23
2023-01-29T16:36:00.709Z,9.00
2023-01-29T16:38:31.214Z,9.02
2023-01-29T16:41:14.293Z,8.27
2023-01-29T16:43:53.623Z,8.65
2023-01-29T16:46:34.204Z,8.05
2023-01-29T16:49:02.645Z,9.73
2023-01-29T16:51:31.843Z,8.75
2023-01-29T16:54:02.418Z,8.63
2023-01-29T16:56:33.759Z,7.97
2023-01-29T16:59:04.096Z,9.40
2023-01-29T17:01:32.918Z,8.98
2023-01-29T17:04:07.551Z,9.20
2023-01-29T17:06:36.462Z,8.95
2023-01-29T17:09:05.542Z,10.25
2023-01-29T17:11:37.861Z,9.65
2023-01-29T17:14:07.852Z,9.80
2023-01-29T17:16:37.557Z,9.68
2023-01-29T17:19:20.857Z,10.50
2023-01-29T17:21:48.970Z,10.43
2023-01-29T17:24:16.865Z,10.55
2023-01-29T17:26:46.146Z,10.85
2023-01-29T17:29:16.433Z,11.52
2023-01-29T17:31:44.732Z,10.52
2023-01-29T17:34:14.831Z,10.32
2023-01-29T17:36:42.799Z,10.95
2023-01-29T17:39:17.051Z,12.27
2023-01-29T17:41:48.371Z,11.20
2023-01-29T17:44:16.697Z,11.07
2023-01-29T17:46:44.643Z,12.32
2023-01-29T17:49:22.443Z,12.70
2023-01-29T17:51:50.665Z,11.55
2023-01-29T17:54:18.567Z,12.55
2023-01-29T17:56:48.259Z,11.82
2023-01-29T17:59:17.736Z,12.57
2023-01-29T18:01:46.286Z,12.23
2023-01-29T18:04:14.558Z,13.00
2023-01-29T18:06:43.652Z,13.10
2023-01-29T18:09:13.849Z,12.50
2023-01-29T18:11:42.001Z,12.52
2023-01-29T18:14:13.960Z,13.40
2023-01-29T18:16:43.181Z,12.77
2023-01-29T18:19:16.447Z,12.05
2023-01-29T18:21:44.409Z,12.25
2023-01-29T18:24:12.403Z,12.65
2023-01-29T18:26:40.436Z,13.02
2023-01-29T18:29:08.455Z,11.77
2023-01-29T18:31:37.666Z,13.05
2023-01-29T18:34:05.866Z,13.02
2023-01-29T18:36:33.883Z,12.00
2023-01-29T18:39:01.835Z,12.52
2023-01-29T18:41:29.734Z,12.80
2023-01-29T18:43:57.597Z,12.15
2023-01-29T18:46:25.451Z,12.10
2023-01-29T18:48:54.667Z,12.60
2023-01-29T18:51:22.597Z,12.20
2023-01-29T18:53:51.723Z,10.88
2023-01-29T18:56:19.944Z,12.60
2023-01-29T18:58:52.124Z,11.50
2023-01-29T19:01:23.916Z,12.18
2023-01-29T19:03:52.194Z,11.80
2023-01-29T19:06:21.402Z,13.05
2023-01-29T19:08:49.466Z,12.40
2023-01-29T19:11:17.507Z,12.93
2023-01-29T19:13:46.104Z,12.50
2023-01-29T19:16:14.234Z,11.93
2023-01-29T19:18:42.406Z,14.00
2023-01-29T19:21:12.461Z,13.23
2023-01-29T19:23:42.487Z,13.90
2023-01-29T19:26:10.556Z,13.75
2023-01-29T19:28:38.485Z,14.40
2023-01-29T19:31:06.456Z,13.73
2023-01-29T19:33:34.522Z,13.57
2023-01-29T19:36:02.796Z,14.10
2023-01-29T19:38:33.475Z,13.63
2023-01-29T19:41:02.884Z,13.95
2023-01-29T19:43:31.551Z,13.75
2023-01-29T19:46:00.396Z,12.82
2023-01-29T19:48:29.255Z,13.90
2023-01-29T19:50:58.737Z,13.75
2023-01-29T19:53:28.962Z,12.90
2023-01-29T19:56:05.561Z,12.93
2023-01-29T19:58:34.190Z,13.20
2023-01-29T20:01:04.709Z,12.95
2023-01-29T20:03:32.991Z,14.30
2023-01-29T20:06:03.704Z,13.70
2023-01-29T20:08:32.487Z,13.25
2023-01-29T20:11:02.273Z,13.00
2023-01-29T20:13:31.088Z,13.02
2023-01-29T20:16:03.017Z,12.50
2023-01-29T20:18:31.104Z,11.98
2023-01-29T20:20:59.722Z,11.48
2023-01-29T20:23:37.072Z,12.45
2023-01-29T20:26:08.137Z,12.02
2023-01-29T20:28:36.487Z,13.23
2023-01-29T20:31:05.447Z,11.43
2023-01-29T20:33:37.036Z,12.80
2023-01-29T20:36:08.015Z,12.27
2023-01-29T20:38:35.920Z,12.65
2023-01-29T20:41:05.529Z,11.90
2023-01-29T20:43:35.581Z,12.43
2023-01-29T20:46:04.080Z,11.95
2023-01-29T20:48:32.378Z,12.02
2023-01-29T20:51:06.208Z,13.07
2023-01-29T20:53:34.097Z,12.35
2023-01-29T20:56:04.327Z,13.00
2023-01-29T20:58:34.015Z,12.63
2023-01-29T21:01:02.101Z,11.75
2023-01-29T21:03:30.050Z,11.48
2023-01-29T21:05:59.117Z,12.00
2023-01-29T21:08:27.117Z,12.07
2023-01-29T21:10:55.106Z,11.80
2023-01-29T21:13:22.994Z,11.10
2023-01-29T21:15:52.257Z,11.07
2023-01-29T21:18:20.292Z,12.82
2023-01-29T21:20:49.888Z,12.30
2023-01-29T21:23:17.864Z,12.82
2023-01-29T21:25:45.932Z,10.82
2023-01-29T21:28:14.073Z,12.27
2023-01-29T21:30:42.059Z,11.77
2023-01-29T21:33:11.362Z,12.20
2023-01-29T21:35:39.386Z,12.65
2023-01-29T21:38:07.226Z,11.90
2023-01-29T21:40:35.263Z,11.68
2023-01-29T21:43:11.413Z,12.98
2023-01-29T21:45:39.509Z,12.18
2023-01-29T21:48:08.103Z,13.32
2023-01-29T21:50:37.421Z,11.73
2023-01-29T21:53:05.520Z,12.85
2023-01-29T21:55:33.626Z,12.30
2023-01-29T21:58:01.625Z,11.35
2023-01-29T22:00:29.581Z,13.38
2023-01-29T22:02:57.561Z,13.65
2023-01-29T22:05:26.467Z,12.38
2023-01-29T22:07:56.009Z,11.93
2023-01-29T22:10:24.040Z,12.85
2023-01-29T22:12:52.130Z,13.27
2023-01-29T22:15:21.602Z,13.07
2023-01-29T22:17:51.292Z,13.32
2023-01-29T22:20:19.982Z,13.20
2023-01-29T22:22:48.052Z,12.05
2023-01-29T22:25:20.013Z,13.38
2023-01-29T22:27:48.046Z,13.35
2023-01-29T22:30:16.624Z,12.55
2023-01-29T22:32:44.679Z,13.25
2023-01-29T22:35:12.547Z,11.80
2023-01-29T22:37:40.461Z,12.77
2023-01-29T22:40:09.825Z,12.82
2023-01-29T22:42:39.029Z,13.32
2023-01-29T22:45:08.698Z,14.27
2023-01-29T22:47:36.582Z,13.10
2023-01-29T22:50:06.001Z,13.70
2023-01-29T22:52:38.492Z,13.65
2023-01-29T22:55:09.192Z,13.80
2023-01-29T22:57:38.546Z,12.68
2023-01-29T23:00:10.191Z,13.02
2023-01-29T23:02:38.405Z,13.07
2023-01-29T23:05:07.460Z,14.02
2023-01-29T23:07:35.400Z,13.63
2023-01-29T23:10:03.365Z,14.25
2023-01-29T23:12:31.275Z,13.70
2023-01-29T23:15:00.529Z,14.25
2023-01-29T23:17:28.391Z,14.48
2023-01-29T23:19:56.284Z,14.73
2023-01-29T23:22:24.161Z,14.80
2023-01-29T23:24:53.007Z,14.50
2023-01-29T23:27:21.849Z,14.88
2023-01-29T23:29:50.090Z,13.18
2023-01-29T23:32:21.198Z,13.13
2023-01-29T23:34:49.154Z,13.48
2023-01-29T23:37:17.039Z,15.38
2023-01-29T23:39:44.920Z,14.52
2023-01-29T23:42:12.896Z,14.70
2023-01-29T23:44:41.108Z,13.85
2023-01-29T23:47:09.125Z,14.93
2023-01-29T23:49:38.476Z,15.43
2023-01-29T23:52:06.942Z,15.77
2023-01-29T23:54:34.812Z,13.75
2023-01-29T23:57:02.719Z,14.85
2023-01-29T23:59:30.661Z,13.77
